createdAt,value
2018-06-28T00:01:18.037Z,100607.00
2018-06-28T00:03:46.454Z,100608.00
2018-06-28T00:06:14.118Z,100608.00
2018-06-28T00:08:41.912Z,100608.00
2018-06-28T00:11:09.542Z,100607.00
2018-06-28T00:13:37.257Z,100614.00
2018-06-28T00:16:04.970Z,100604.00
2018-06-28T00:18:32.678Z,100607.00
2018-06-28T00:21:00.397Z,100613.00
2018-06-28T00:23:28.045Z,100617.00
2018-06-28T00:25:55.734Z,100627.00
2018-06-28T00:28:23.445Z,100622.00
2018-06-28T00:30:51.262Z,100621.00
2018-06-28T00:33:18.881Z,100621.00
2018-06-28T00:35:46.577Z,100620.00
2018-06-28T00:38:14.276Z,100621.00
2018-06-28T00:40:41.874Z,100616.00
2018-06-28T00:43:09.474Z,100609.00
2018-06-28T00:45:37.195Z,100611.00
2018-06-28T00:48:05.237Z,100613.00
2018-06-28T00:50:32.910Z,100615.00
2018-06-28T00:53:00.625Z,100613.00
2018-06-28T00:55:28.287Z,100614.00
2018-06-28T00:57:55.988Z,100616.00
2018-06-28T01:00:23.647Z,100624.00
2018-06-28T01:02:51.373Z,100616.00
2018-06-28T01:05:19.020Z,100616.00
2018-06-28T01:07:46.684Z,100617.00
2018-06-28T01:10:14.413Z,100612.00
2018-06-28T01:12:42.030Z,100604.00
2018-06-28T01:15:09.761Z,100602.00
2018-06-28T01:17:37.456Z,100601.00
2018-06-28T01:20:05.473Z,100597.00
2018-06-28T01:22:33.333Z,100591.00
2018-06-28T01:25:00.979Z,100597.00
2018-06-28T01:27:33.680Z,100596.00
2018-06-28T01:30:01.342Z,100596.00
2018-06-28T01:32:28.965Z,100594.00
2018-06-28T01:34:56.617Z,100599.00
2018-06-28T01:37:24.342Z,100594.00
2018-06-28T01:39:51.956Z,100590.00
2018-06-28T01:43:38.641Z,100586.00
2018-06-28T01:46:06.411Z,100582.00
2018-06-28T01:48:34.097Z,100579.00
2018-06-28T01:51:01.749Z,100584.00
2018-06-28T01:53:29.419Z,100582.00
2018-06-28T01:55:57.173Z,100577.00
2018-06-28T01:58:24.897Z,100573.00
2018-06-28T02:00:52.588Z,100575.00
2018-06-28T02:03:20.193Z,100578.00
2018-06-28T02:05:49.280Z,100580.00
2018-06-28T02:08:17.330Z,100584.00
2018-06-28T02:10:44.981Z,100576.00
2018-06-28T02:13:12.689Z,100571.00
2018-06-28T02:15:40.299Z,100572.00
2018-06-28T02:18:08.613Z,100569.00
2018-06-28T02:20:36.756Z,100562.00
2018-06-28T02:23:04.401Z,100563.00
2018-06-28T02:25:32.102Z,100563.00
2018-06-28T02:27:59.741Z,100557.00
2018-06-28T02:30:27.415Z,100559.00
2018-06-28T02:32:55.097Z,100553.00
2018-06-28T02:35:22.757Z,100552.00
2018-06-28T02:37:50.540Z,100554.00
2018-06-28T02:40:18.184Z,100548.00
2018-06-28T02:42:45.830Z,100545.00
2018-06-28T02:45:13.465Z,100551.00
2018-06-28T02:47:41.128Z,100553.00
2018-06-28T02:50:08.786Z,100549.00
2018-06-28T02:52:36.415Z,100547.00
2018-06-28T02:55:04.229Z,100546.00
2018-06-28T02:57:31.894Z,100546.00
2018-06-28T02:59:59.544Z,100542.00
2018-06-28T03:02:27.191Z,100544.00
2018-06-28T03:04:55.031Z,100545.00
2018-06-28T03:07:22.683Z,100551.00
2018-06-28T03:09:50.637Z,100551.00
2018-06-28T03:12:18.498Z,100550.00
2018-06-28T03:14:46.143Z,100553.00
2018-06-28T03:17:13.784Z,100551.00
2018-06-28T03:19:41.401Z,100545.00
2018-06-28T03:22:09.106Z,100544.00
2018-06-28T03:24:36.737Z,100542.00
2018-06-28T03:27:04.406Z,100534.00
2018-06-28T03:29:32.043Z,100536.00
2018-06-28T03:31:59.617Z,100532.00
2018-06-28T03:34:27.242Z,100535.00
2018-06-28T03:36:54.992Z,100538.00
2018-06-28T03:39:22.637Z,100537.00
2018-06-28T03:41:50.466Z,100538.00
2018-06-28T03:44:18.107Z,100541.00
2018-06-28T03:46:45.799Z,100536.00
2018-06-28T03:49:13.443Z,100539.00
2018-06-28T03:51:41.080Z,100540.00
2018-06-28T03:54:08.993Z,100537.00
2018-06-28T03:56:37.257Z,100529.00
2018-06-28T03:59:04.933Z,100534.00
2018-06-28T04:01:33.486Z,100529.00
2018-06-28T04:04:01.131Z,100531.00
2018-06-28T04:06:29.030Z,100530.00
2018-06-28T04:08:56.643Z,100534.00
2018-06-28T04:11:24.223Z,100533.00
2018-06-28T04:13:51.860Z,100532.00
2018-06-28T04:16:19.531Z,100536.00
2018-06-28T04:18:47.142Z,100535.00
2018-06-28T04:21:14.804Z,100537.00
2018-06-28T04:23:42.465Z,100537.00
2018-06-28T04:26:10.145Z,100535.00
2018-06-28T04:28:37.892Z,100538.00
2018-06-28T04:31:05.533Z,100536.00
2018-06-28T04:33:33.319Z,100530.00
2018-06-28T04:36:01.392Z,100529.00
2018-06-28T04:38:29.081Z,100527.00
2018-06-28T04:40:56.869Z,100532.00
2018-06-28T04:43:24.960Z,100529.00
2018-06-28T04:45:52.826Z,100531.00
2018-06-28T04:48:20.484Z,100534.00
2018-06-28T04:50:49.276Z,100534.00
2018-06-28T04:53:17.059Z,100534.00
2018-06-28T04:55:44.706Z,100515.00
2018-06-28T04:58:12.440Z,100515.00
2018-06-28T05:00:40.502Z,100514.00
2018-06-28T05:03:08.773Z,100510.00
2018-06-28T05:05:36.729Z,100505.00
2018-06-28T05:08:04.469Z,100502.00
2018-06-28T05:10:32.188Z,100502.00
2018-06-28T05:12:59.873Z,100504.00
2018-06-28T05:15:27.645Z,100503.00
2018-06-28T05:17:55.110Z,100503.00
2018-06-28T05:20:22.771Z,100503.00
2018-06-28T05:22:50.392Z,100506.00
2018-06-28T05:25:18.129Z,100510.00
2018-06-28T05:27:45.883Z,100510.00
2018-06-28T05:30:13.513Z,100509.00
2018-06-28T05:32:41.117Z,100500.00
2018-06-28T05:35:08.777Z,100496.00
2018-06-28T05:37:36.470Z,100490.00
2018-06-28T05:40:04.138Z,100490.00
2018-06-28T05:42:31.883Z,100479.00
2018-06-28T05:44:59.724Z,100476.00
2018-06-28T05:47:27.341Z,100474.00
2018-06-28T05:49:55.042Z,100471.00
2018-06-28T05:52:22.686Z,100473.00
2018-06-28T05:54:50.368Z,100477.00
2018-06-28T05:57:18.305Z,100480.00
2018-06-28T05:59:45.943Z,100470.00
2018-06-28T06:02:13.796Z,100460.00
2018-06-28T06:04:41.475Z,100457.00
2018-06-28T06:07:09.103Z,100458.00
2018-06-28T06:09:36.755Z,100453.00
2018-06-28T06:12:04.406Z,100452.00
2018-06-28T06:14:32.024Z,100449.00
2018-06-28T06:16:59.711Z,100456.00
2018-06-28T06:19:27.414Z,100458.00
2018-06-28T06:21:55.021Z,100457.00
2018-06-28T06:24:22.836Z,100455.00
2018-06-28T06:26:50.481Z,100450.00
2018-06-28T06:29:18.220Z,100448.00
2018-06-28T06:31:45.834Z,100451.00
2018-06-28T06:34:14.349Z,100452.00
2018-06-28T06:36:42.089Z,100443.00
2018-06-28T06:39:11.082Z,100446.00
2018-06-28T06:41:38.786Z,100441.00
2018-06-28T06:44:06.833Z,100438.00
2018-06-28T06:46:34.905Z,100439.00
2018-06-28T06:49:02.580Z,100435.00
2018-06-28T06:51:30.917Z,100430.00
2018-06-28T06:53:58.622Z,100429.00
2018-06-28T06:56:26.421Z,100421.00
2018-06-28T06:58:54.263Z,100420.00
2018-06-28T07:01:21.878Z,100417.00
2018-06-28T07:03:49.513Z,100418.00
2018-06-28T07:06:17.732Z,100412.00
2018-06-28T07:08:45.373Z,100416.00
2018-06-28T07:11:13.382Z,100412.00
2018-06-28T07:13:41.161Z,100415.00
2018-06-28T07:16:08.960Z,100415.00
2018-06-28T07:18:37.035Z,100404.00
2018-06-28T07:21:04.831Z,100402.00
2018-06-28T07:23:32.494Z,100395.00
2018-06-28T07:26:00.229Z,100387.00
2018-06-28T07:28:28.057Z,100386.00
2018-06-28T07:30:55.672Z,100388.00
2018-06-28T07:33:24.415Z,100375.00
2018-06-28T07:35:52.112Z,100373.00
2018-06-28T07:38:19.793Z,100375.00
2018-06-28T07:40:47.452Z,100367.00
2018-06-28T07:43:15.056Z,100365.00
2018-06-28T07:45:42.754Z,100363.00
2018-06-28T07:48:10.432Z,100360.00
2018-06-28T07:50:38.141Z,100346.00
2018-06-28T07:53:05.810Z,100348.00
2018-06-28T07:55:33.535Z,100348.00
2018-06-28T07:58:01.197Z,100343.00
2018-06-28T08:00:28.861Z,100341.00
2018-06-28T08:02:56.496Z,100341.00
2018-06-28T08:05:24.078Z,100335.00
2018-06-28T08:07:51.806Z,100334.00
2018-06-28T08:10:19.442Z,100331.00
2018-06-28T08:12:47.054Z,100334.00
2018-06-28T08:15:14.961Z,100330.00
2018-06-28T08:17:42.616Z,100335.00
2018-06-28T08:20:10.211Z,100336.00
2018-06-28T08:22:37.874Z,100330.00
2018-06-28T08:25:05.613Z,100330.00
2018-06-28T08:27:33.525Z,100329.00
2018-06-28T08:30:01.361Z,100324.00
2018-06-28T08:32:28.966Z,100314.00
2018-06-28T08:34:56.571Z,100312.00
2018-06-28T08:37:24.261Z,100318.00
2018-06-28T08:39:51.905Z,100312.00
2018-06-28T08:42:19.574Z,100315.00
2018-06-28T08:44:47.213Z,100308.00
2018-06-28T08:47:14.835Z,100309.00
2018-06-28T08:49:42.511Z,100309.00
2018-06-28T08:52:10.179Z,100310.00
2018-06-28T08:54:37.822Z,100303.00
2018-06-28T08:57:05.498Z,100303.00
2018-06-28T08:59:33.132Z,100307.00
2018-06-28T09:02:00.821Z,100307.00
2018-06-28T09:04:28.464Z,100306.00
2018-06-28T09:06:56.103Z,100308.00
2018-06-28T09:09:23.673Z,100309.00
2018-06-28T09:11:51.305Z,100299.00
2018-06-28T09:14:19.042Z,100299.00
2018-06-28T09:16:46.701Z,100298.00
2018-06-28T09:19:14.396Z,100301.00
2018-06-28T09:21:42.081Z,100293.00
2018-06-28T09:24:09.744Z,100286.00
2018-06-28T09:26:37.425Z,100282.00
2018-06-28T09:29:05.131Z,100292.00
2018-06-28T09:31:32.802Z,100296.00
2018-06-28T09:34:01.017Z,100295.00
2018-06-28T09:36:28.716Z,100293.00
2018-06-28T09:38:56.391Z,100293.00
2018-06-28T09:41:24.018Z,100289.00
2018-06-28T09:43:51.663Z,100286.00
2018-06-28T09:46:19.411Z,100281.00
2018-06-28T09:48:47.076Z,100284.00
2018-06-28T09:51:14.760Z,100277.00
2018-06-28T09:53:42.378Z,100277.00
2018-06-28T09:56:10.026Z,100281.00
2018-06-28T09:58:37.722Z,100278.00
2018-06-28T10:01:05.392Z,100272.00
2018-06-28T10:03:33.028Z,100273.00
2018-06-28T10:06:00.617Z,100273.00
2018-06-28T10:08:28.261Z,100265.00
2018-06-28T10:10:55.904Z,100269.00
2018-06-28T10:13:23.496Z,100269.00
2018-06-28T10:15:51.162Z,100268.00
2018-06-28T10:18:18.785Z,100263.00
2018-06-28T10:20:46.448Z,100265.00
2018-06-28T10:23:14.068Z,100264.00
2018-06-28T10:25:41.726Z,100256.00
2018-06-28T10:28:09.316Z,100252.00
2018-06-28T10:30:37.015Z,100254.00
2018-06-28T10:33:04.674Z,100254.00
2018-06-28T10:35:32.279Z,100253.00
2018-06-28T10:37:59.857Z,100249.00
2018-06-28T10:40:27.499Z,100252.00
2018-06-28T10:42:55.180Z,100242.00
2018-06-28T10:45:22.861Z,100245.00
2018-06-28T10:47:50.509Z,100246.00
2018-06-28T10:50:18.157Z,100245.00
2018-06-28T10:52:45.828Z,100246.00
2018-06-28T10:55:13.438Z,100238.00
2018-06-28T10:57:41.174Z,100240.00
2018-06-28T11:00:08.822Z,100244.00
2018-06-28T11:02:36.547Z,100241.00
2018-06-28T11:05:04.756Z,100240.00
2018-06-28T11:07:32.437Z,100234.00
2018-06-28T11:10:00.132Z,100230.00
2018-06-28T11:12:27.794Z,100224.00
2018-06-28T11:14:55.761Z,100230.00
2018-06-28T11:17:23.488Z,100228.00
2018-06-28T11:19:51.201Z,100227.00
2018-06-28T11:22:18.874Z,100227.00
2018-06-28T11:24:46.483Z,100231.00
2018-06-28T11:27:14.115Z,100220.00
2018-06-28T11:29:41.721Z,100218.00
2018-06-28T11:32:09.410Z,100217.00
2018-06-28T11:34:37.191Z,100218.00
2018-06-28T11:37:05.190Z,100214.00
2018-06-28T11:39:32.781Z,100218.00
2018-06-28T11:42:00.429Z,100229.00
2018-06-28T11:44:28.136Z,100216.00
2018-06-28T11:46:55.842Z,100223.00
2018-06-28T11:49:23.592Z,100220.00
2018-06-28T11:51:51.372Z,100219.00
2018-06-28T11:54:19.050Z,100215.00
2018-06-28T11:56:46.752Z,100213.00
2018-06-28T11:59:14.397Z,100212.00
2018-06-28T12:01:42.197Z,100215.00
2018-06-28T12:04:09.828Z,100218.00
2018-06-28T12:06:37.424Z,100216.00
2018-06-28T12:09:08.035Z,100212.00
2018-06-28T12:11:35.737Z,100224.00
2018-06-28T12:14:03.534Z,100214.00
2018-06-28T12:16:31.161Z,100218.00
2018-06-28T12:18:58.877Z,100216.00
2018-06-28T12:21:26.520Z,100222.00
2018-06-28T12:23:54.143Z,100215.00
2018-06-28T12:26:21.849Z,100207.00
2018-06-28T12:28:49.496Z,100210.00
2018-06-28T12:31:17.166Z,100203.00
2018-06-28T12:33:44.840Z,100203.00
2018-06-28T12:36:12.541Z,100204.00
2018-06-28T12:38:40.194Z,100197.00
2018-06-28T12:41:07.794Z,100203.00
2018-06-28T12:43:35.461Z,100203.00
2018-06-28T12:48:41.737Z,100208.00
2018-06-28T12:51:09.417Z,100199.00
2018-06-28T12:53:37.248Z,100211.00
2018-06-28T12:56:37.172Z,100209.00
2018-06-28T12:59:06.335Z,100217.00
2018-06-28T13:01:34.021Z,100222.00
2018-06-28T13:04:01.634Z,100231.00
2018-06-28T13:06:29.312Z,100223.00
2018-06-28T13:08:57.545Z,100227.00
2018-06-28T13:11:25.723Z,100213.00
2018-06-28T13:13:53.630Z,100227.00
2018-06-28T13:16:22.348Z,100224.00
2018-06-28T13:18:50.050Z,100231.00
2018-06-28T13:21:17.669Z,100225.00
2018-06-28T13:23:45.299Z,100223.00
2018-06-28T13:26:14.141Z,100227.00
2018-06-28T13:28:42.441Z,100224.00
2018-06-28T13:31:10.046Z,100222.00
2018-06-28T13:33:38.019Z,100227.00
2018-06-28T13:36:05.623Z,100220.00
2018-06-28T13:38:33.216Z,100217.00
2018-06-28T13:41:01.124Z,100215.00
2018-06-28T13:43:28.704Z,100213.00
2018-06-28T13:45:56.361Z,100207.00
2018-06-28T13:48:24.051Z,100209.00
2018-06-28T13:50:52.121Z,100195.00
2018-06-28T13:53:19.949Z,100201.00
2018-06-28T13:55:47.592Z,100194.00
2018-06-28T13:58:15.277Z,100193.00
2018-06-28T14:00:42.893Z,100186.00
2018-06-28T14:03:10.617Z,100177.00
2018-06-28T14:05:38.773Z,100171.00
2018-06-28T14:08:06.412Z,100173.00
2018-06-28T14:10:34.087Z,100168.00
2018-06-28T14:13:01.734Z,100169.00
2018-06-28T14:15:29.360Z,100165.00
2018-06-28T14:17:56.994Z,100157.00
2018-06-28T14:20:24.664Z,100160.00
2018-06-28T14:22:52.360Z,100166.00
2018-06-28T14:25:19.965Z,100163.00
2018-06-28T14:27:48.181Z,100162.00
2018-06-28T14:30:15.798Z,100156.00
2018-06-28T14:32:43.973Z,100160.00
2018-06-28T14:35:11.851Z,100149.00
2018-06-28T14:37:39.520Z,100145.00
2018-06-28T14:40:07.930Z,100142.00
2018-06-28T14:42:35.605Z,100138.00
2018-06-28T14:45:03.615Z,100131.00
2018-06-28T14:47:31.200Z,100132.00
2018-06-28T14:49:58.778Z,100124.00
2018-06-28T14:52:26.564Z,100126.00
2018-06-28T14:54:54.165Z,100125.00
2018-06-28T14:57:21.778Z,100129.00
2018-06-28T14:59:49.680Z,100137.00
2018-06-28T15:02:17.285Z,100144.00
2018-06-28T15:04:44.929Z,100143.00
2018-06-28T15:07:12.548Z,100146.00
2018-06-28T15:09:40.274Z,100144.00
2018-06-28T15:12:07.899Z,100147.00
2018-06-28T15:14:35.611Z,100148.00
2018-06-28T15:17:03.250Z,100155.00
2018-06-28T15:19:30.948Z,100154.00
2018-06-28T15:21:58.576Z,100149.00
2018-06-28T15:24:26.349Z,100141.00
2018-06-28T15:26:54.005Z,100136.00
2018-06-28T15:29:21.740Z,100130.00
2018-06-28T15:31:50.284Z,100129.00
2018-06-28T15:34:18.027Z,100123.00
2018-06-28T15:36:45.761Z,100125.00
2018-06-28T15:39:13.391Z,100112.00
2018-06-28T15:41:41.013Z,100118.00
2018-06-28T15:44:08.653Z,100117.00
2018-06-28T15:46:36.389Z,100110.00
2018-06-28T15:49:04.056Z,100115.00
2018-06-28T15:51:31.769Z,100109.00
2018-06-28T15:53:59.877Z,100106.00
2018-06-28T15:56:27.505Z,100103.00
2018-06-28T15:58:55.089Z,100097.00
2018-06-28T16:01:23.015Z,100099.00
2018-06-28T16:03:50.605Z,100100.00
2018-06-28T16:06:18.512Z,100091.00
2018-06-28T16:08:46.212Z,100090.00
2018-06-28T16:11:13.964Z,100094.00
2018-06-28T16:13:41.552Z,100093.00
2018-06-28T16:16:09.180Z,100089.00
2018-06-28T16:18:37.346Z,100086.00
2018-06-28T16:21:05.569Z,100088.00
2018-06-28T16:23:33.342Z,100086.00
2018-06-28T16:26:00.948Z,100075.00
2018-06-28T16:28:28.631Z,100078.00
2018-06-28T16:30:56.295Z,100079.00
2018-06-28T16:33:24.014Z,100080.00
2018-06-28T16:35:51.669Z,100076.00
2018-06-28T16:38:19.334Z,100080.00
2018-06-28T16:40:47.272Z,100078.00
2018-06-28T16:43:15.328Z,100074.00
2018-06-28T16:45:43.009Z,100074.00
2018-06-28T16:48:10.608Z,100078.00
2018-06-28T16:50:38.365Z,100081.00
2018-06-28T16:53:06.130Z,100084.00
2018-06-28T16:55:33.696Z,100087.00
2018-06-28T16:58:01.345Z,100086.00
2018-06-28T17:00:28.991Z,100096.00
2018-06-28T17:02:56.683Z,100090.00
2018-06-28T17:05:24.365Z,100087.00
2018-06-28T17:07:52.195Z,100090.00
2018-06-28T17:10:20.064Z,100088.00
2018-06-28T17:12:47.693Z,100088.00
2018-06-28T17:15:15.332Z,100091.00
2018-06-28T17:17:43.239Z,100085.00
2018-06-28T17:20:11.125Z,100082.00
2018-06-28T17:22:38.777Z,100085.00
2018-06-28T17:25:06.565Z,100080.00
2018-06-28T17:27:34.237Z,100079.00
2018-06-28T17:30:01.917Z,100077.00
2018-06-28T17:32:29.537Z,100083.00
2018-06-28T17:34:57.232Z,100079.00
2018-06-28T17:37:24.938Z,100079.00
2018-06-28T17:39:52.905Z,100084.00
2018-06-28T17:42:20.602Z,100081.00
2018-06-28T17:44:48.309Z,100082.00
2018-06-28T17:47:16.053Z,100083.00
2018-06-28T17:49:43.785Z,100085.00
2018-06-28T17:52:11.411Z,100077.00
2018-06-28T17:54:39.163Z,100081.00
2018-06-28T17:57:06.871Z,100082.00
2018-06-28T17:59:35.436Z,100082.00
2018-06-28T18:02:03.192Z,100081.00
2018-06-28T18:04:30.876Z,100078.00
2018-06-28T18:06:59.253Z,100077.00
2018-06-28T18:09:26.868Z,100072.00
2018-06-28T18:11:54.608Z,100076.00
2018-06-28T18:14:22.482Z,100074.00
2018-06-28T18:16:50.429Z,100076.00
2018-06-28T18:19:18.318Z,100071.00
2018-06-28T18:21:53.196Z,100068.00
2018-06-28T18:24:20.834Z,100074.00
2018-06-28T18:26:48.593Z,100072.00
2018-06-28T18:29:16.325Z,100068.00
2018-06-28T18:31:44.049Z,100075.00
2018-06-28T18:34:11.709Z,100068.00
2018-06-28T18:36:39.453Z,100067.00
2018-06-28T18:39:09.013Z,100066.00
2018-06-28T18:41:37.423Z,100064.00
2018-06-28T18:44:05.291Z,100056.00
2018-06-28T18:46:33.143Z,100053.00
2018-06-28T18:49:00.905Z,100051.00
2018-06-28T18:51:28.838Z,100052.00
2018-06-28T18:53:56.693Z,100053.00
2018-06-28T18:56:24.500Z,100046.00
2018-06-28T18:58:52.323Z,100055.00
2018-06-28T19:01:20.029Z,100055.00
2018-06-28T19:03:47.786Z,100058.00
2018-06-28T19:06:15.428Z,100055.00
2018-06-28T19:08:43.093Z,100055.00
2018-06-28T19:11:10.780Z,100058.00
2018-06-28T19:13:44.122Z,100051.00
2018-06-28T19:16:17.624Z,100053.00
2018-06-28T19:18:45.364Z,100050.00
2018-06-28T19:21:18.738Z,100055.00
2018-06-28T19:23:49.563Z,100050.00
2018-06-28T19:26:17.835Z,100053.00
2018-06-28T19:28:46.066Z,100056.00
2018-06-28T19:31:19.449Z,100058.00
2018-06-28T19:33:47.189Z,100057.00
2018-06-28T19:36:14.899Z,100059.00
2018-06-28T19:38:48.281Z,100061.00
2018-06-28T19:41:21.848Z,100060.00
2018-06-28T19:43:49.593Z,100064.00
2018-06-28T19:46:17.210Z,100063.00
2018-06-28T19:48:44.963Z,100063.00
2018-06-28T19:51:18.427Z,100063.00
2018-06-28T19:53:46.210Z,100061.00
2018-06-28T19:56:13.837Z,100063.00
2018-06-28T19:58:41.475Z,100062.00
2018-06-28T20:01:14.884Z,100055.00
2018-06-28T20:03:48.268Z,100048.00
2018-06-28T20:06:15.944Z,100054.00
2018-06-28T20:08:43.722Z,100052.00
2018-06-28T20:11:11.420Z,100047.00
2018-06-28T20:13:44.828Z,100043.00
2018-06-28T20:16:18.303Z,100047.00
2018-06-28T20:18:51.828Z,100049.00
2018-06-28T20:21:19.700Z,100045.00
2018-06-28T20:23:47.309Z,100042.00
2018-06-28T20:26:20.755Z,100045.00
2018-06-28T20:28:54.344Z,100045.00
2018-06-28T20:32:25.830Z,100044.00
2018-06-28T20:34:53.485Z,100041.00
2018-06-28T20:37:21.136Z,100044.00
2018-06-28T20:39:48.718Z,100043.00
2018-06-28T20:42:16.450Z,100043.00
2018-06-28T20:44:44.058Z,100051.00
2018-06-28T20:47:11.685Z,100050.00
2018-06-28T20:49:39.377Z,100050.00
2018-06-28T20:52:07.001Z,100052.00
2018-06-28T20:54:34.621Z,100053.00
2018-06-28T20:57:02.282Z,100053.00
2018-06-28T20:59:30.069Z,100046.00
2018-06-28T21:01:57.673Z,100052.00
2018-06-28T21:04:25.514Z,100053.00
2018-06-28T21:06:53.077Z,100051.00
2018-06-28T21:09:20.814Z,100054.00
2018-06-28T21:11:48.398Z,100051.00
2018-06-28T21:14:16.007Z,100049.00
2018-06-28T21:16:43.665Z,100053.00
2018-06-28T21:19:11.268Z,100049.00
2018-06-28T21:21:38.924Z,100053.00
2018-06-28T21:24:06.572Z,100052.00
2018-06-28T21:26:34.354Z,100051.00
2018-06-28T21:29:01.931Z,100053.00
2018-06-28T21:31:30.008Z,100056.00
2018-06-28T21:33:57.666Z,100053.00
2018-06-28T21:36:25.258Z,100052.00
2018-06-28T21:38:52.847Z,100050.00
2018-06-28T21:41:20.503Z,100059.00
2018-06-28T21:43:48.176Z,100063.00
2018-06-28T21:46:15.754Z,100066.00
2018-06-28T21:48:43.395Z,100063.00
2018-06-28T21:51:11.017Z,100062.00
2018-06-28T21:53:38.594Z,100056.00
2018-06-28T21:56:06.185Z,100058.00
2018-06-28T21:58:33.853Z,100060.00
2018-06-28T22:01:01.609Z,100062.00
2018-06-28T22:03:29.177Z,100061.00
2018-06-28T22:05:56.780Z,100060.00
2018-06-28T22:08:24.348Z,100061.00
2018-06-28T22:10:51.923Z,100056.00
2018-06-28T22:13:19.489Z,100054.00
2018-06-28T22:15:47.142Z,100053.00
2018-06-28T22:18:14.732Z,100057.00
2018-06-28T22:20:42.306Z,100057.00
2018-06-28T22:23:09.873Z,100058.00
2018-06-28T22:25:37.684Z,100057.00
2018-06-28T22:28:05.308Z,100051.00
2018-06-28T22:30:32.889Z,100047.00
2018-06-28T22:33:00.507Z,100051.00
2018-06-28T22:35:28.082Z,100047.00
2018-06-28T22:37:55.887Z,100048.00
2018-06-28T22:40:23.470Z,100047.00
2018-06-28T22:42:51.056Z,100043.00
2018-06-28T22:45:18.676Z,100035.00
2018-06-28T22:47:46.269Z,100041.00
2018-06-28T22:50:13.864Z,100041.00
2018-06-28T22:52:41.540Z,100037.00
2018-06-28T22:55:09.334Z,100033.00
2018-06-28T22:57:36.916Z,100024.00
2018-06-28T23:00:06.269Z,100026.00
2018-06-28T23:02:33.919Z,100028.00
2018-06-28T23:05:01.543Z,100027.00
2018-06-28T23:07:29.130Z,100031.00
2018-06-28T23:09:56.823Z,100029.00
2018-06-28T23:12:24.373Z,100031.00
2018-06-28T23:14:52.477Z,100028.00
2018-06-28T23:17:20.150Z,100032.00
2018-06-28T23:19:47.841Z,100032.00
2018-06-28T23:22:52.601Z,100033.00
2018-06-28T23:25:20.865Z,100035.00
2018-06-28T23:27:49.079Z,100034.00
2018-06-28T23:30:17.201Z,100030.00
2018-06-28T23:32:44.937Z,100033.00
2018-06-28T23:35:12.504Z,100032.00
2018-06-28T23:37:40.182Z,100032.00
2018-06-28T23:40:07.860Z,100030.00
2018-06-28T23:42:36.295Z,100030.00
2018-06-28T23:45:04.973Z,100034.00
2018-06-28T23:47:32.761Z,100029.00
2018-06-28T23:50:00.563Z,100033.00
2018-06-28T23:52:28.157Z,100027.00
2018-06-28T23:54:55.881Z,100029.00
2018-06-28T23:57:23.413Z,100034.00
2018-06-28T23:59:51.068Z,100035.00
